createdAt,value
2018-05-03T03:08:25.899Z,100352.55
2018-05-03T03:14:39.384Z,100357.78
2018-05-03T03:17:31.303Z,100374.91
2018-05-03T03:24:15.774Z,100362.60
2018-05-03T03:30:29.975Z,100357.20
2018-05-03T03:33:16.696Z,100366.73
2018-05-03T03:36:11.958Z,100378.26
2018-05-03T03:38:57.973Z,100384.77
2018-05-03T03:41:38.019Z,100384.22
2018-05-03T03:44:24.265Z,100386.02
2018-05-03T03:46:52.663Z,100391.79
2018-05-03T03:49:21.040Z,100392.16
2018-05-03T03:51:49.458Z,100393.52
2018-05-03T03:54:17.920Z,100393.92
2018-05-03T03:56:46.288Z,100393.53
2018-05-03T03:59:14.675Z,100396.57
2018-05-03T04:01:43.055Z,100400.55
2018-05-03T04:04:11.428Z,100408.05
2018-05-03T04:06:39.829Z,100402.48
2018-05-03T04:09:08.296Z,100415.88
2018-05-03T04:11:36.679Z,100422.16
2018-05-03T04:14:05.048Z,100405.70
2018-05-03T04:16:33.427Z,100401.77
2018-05-03T04:19:19.731Z,100393.31
2018-05-03T04:22:05.941Z,100400.50
2018-05-03T04:24:52.229Z,100397.95
2018-05-03T04:27:20.621Z,100404.06
2018-05-03T04:29:48.979Z,100412.73
2018-05-03T04:32:17.358Z,100397.10
2018-05-03T04:34:45.773Z,100393.85
2018-05-03T04:37:14.634Z,100385.91
2018-05-03T04:39:43.026Z,100375.39
2018-05-03T04:42:11.423Z,100379.81
2018-05-03T04:44:40.851Z,100369.97
2018-05-03T04:47:09.199Z,100370.98
2018-05-03T04:49:37.585Z,100379.60
2018-05-03T04:52:06.103Z,100381.37
2018-05-03T04:54:34.513Z,100390.95
2018-05-03T04:57:02.907Z,100393.27
2018-05-03T04:59:31.271Z,100382.97
2018-05-03T05:01:59.625Z,100388.64
2018-05-03T05:04:28.427Z,100389.48
2018-05-03T05:06:56.786Z,100395.72
2018-05-03T05:09:25.165Z,100402.42
2018-05-03T05:11:53.577Z,100398.98
2018-05-03T05:14:21.968Z,100388.73
2018-05-03T05:16:50.467Z,100393.47
2018-05-03T05:19:18.847Z,100399.63
2018-05-03T05:21:47.231Z,100394.81
2018-05-03T05:24:16.043Z,100408.59
2018-05-03T05:26:44.376Z,100412.33
2018-05-03T05:29:12.919Z,100413.37
2018-05-03T05:31:41.288Z,100405.67
2018-05-03T05:34:09.678Z,100399.63
2018-05-03T05:36:38.070Z,100403.49
2018-05-03T05:39:06.436Z,100416.51
2018-05-03T05:41:34.922Z,100419.92
2018-05-03T05:44:03.285Z,100423.89
2018-05-03T05:46:31.658Z,100410.09
2018-05-03T05:49:00.043Z,100408.44
2018-05-03T05:51:28.407Z,100404.86
2018-05-03T05:53:57.159Z,100403.00
2018-05-03T05:56:25.546Z,100400.16
2018-05-03T05:58:54.017Z,100397.23
2018-05-03T06:01:22.399Z,100399.42
2018-05-03T06:03:50.776Z,100403.30
2018-05-03T06:06:19.157Z,100415.39
2018-05-03T06:08:47.615Z,100426.67
2018-05-03T06:11:16.110Z,100432.16
2018-05-03T06:13:44.598Z,100429.12
2018-05-03T06:16:12.966Z,100433.46
2018-05-03T06:18:41.502Z,100427.67
2018-05-03T06:21:09.851Z,100428.52
2018-05-03T06:23:38.217Z,100426.81
2018-05-03T06:26:06.642Z,100429.66
2018-05-03T06:28:35.004Z,100435.72
2018-05-03T06:31:03.848Z,100439.31
2018-05-03T06:33:32.271Z,100441.53
2018-05-03T06:36:01.316Z,100440.54
2018-05-03T06:38:29.676Z,100440.33
2018-05-03T06:40:58.085Z,100439.88
2018-05-03T06:43:26.464Z,100434.88
2018-05-03T06:45:54.856Z,100439.41
2018-05-03T06:48:23.270Z,100441.18
2018-05-03T06:50:52.032Z,100451.22
2018-05-03T06:53:20.395Z,100455.15
2018-05-03T06:55:48.774Z,100459.66
2018-05-03T06:58:17.161Z,100463.43
2018-05-03T07:00:45.522Z,100473.83
2018-05-03T07:03:14.010Z,100475.47
2018-05-03T07:05:42.458Z,100484.59
2018-05-03T07:08:10.807Z,100494.47
2018-05-03T07:10:39.595Z,100506.09
2018-05-03T07:13:08.448Z,100509.30
2018-05-03T07:15:36.808Z,100514.72
2018-05-03T07:18:05.190Z,100528.16
2018-05-03T07:20:33.574Z,100540.77
2018-05-03T07:23:01.937Z,100537.92
2018-05-03T07:25:30.344Z,100537.48
2018-05-03T07:27:58.733Z,100544.67
2018-05-03T07:30:27.081Z,100552.13
2018-05-03T07:32:55.452Z,100564.83
2018-05-03T07:35:23.834Z,100568.48
2018-05-03T07:37:52.240Z,100574.12
2018-05-03T07:40:20.622Z,100592.36
2018-05-03T07:42:48.980Z,100605.10
2018-05-03T07:45:17.340Z,100603.16
2018-05-03T07:47:45.846Z,100599.66
2018-05-03T07:50:14.262Z,100603.95
2018-05-03T07:52:42.606Z,100610.41
2018-05-03T07:55:10.986Z,100613.23
2018-05-03T07:57:39.578Z,100622.70
2018-05-03T08:00:07.943Z,100625.83
2018-05-03T08:02:36.438Z,100631.36
2018-05-03T08:05:04.808Z,100630.96
2018-05-03T08:07:33.161Z,100627.03
2018-05-03T08:10:01.560Z,100621.73
2018-05-03T08:12:29.939Z,100620.30
2018-05-03T08:14:58.286Z,100614.41
2018-05-03T08:17:26.707Z,100615.06
2018-05-03T08:19:55.063Z,100620.02
2018-05-03T08:22:23.483Z,100623.57
2018-05-03T08:24:51.896Z,100628.69
2018-05-03T08:27:20.266Z,100627.20
2018-05-03T08:29:49.012Z,100629.80
2018-05-03T08:32:17.393Z,100631.95
2018-05-03T08:34:45.768Z,100642.19
2018-05-03T08:37:14.648Z,100640.66
2018-05-03T08:39:43.075Z,100641.49
2018-05-03T08:42:11.834Z,100642.78
2018-05-03T08:44:40.198Z,100638.70
2018-05-03T08:47:08.571Z,100639.30
2018-05-03T08:49:37.904Z,100639.52
2018-05-03T08:52:06.264Z,100639.91
2018-05-03T08:54:34.747Z,100644.22
2018-05-03T08:57:03.101Z,100641.72
2018-05-03T08:59:31.471Z,100636.92
2018-05-03T09:01:59.887Z,100632.99
2018-05-03T09:04:28.271Z,100648.70
2018-05-03T09:06:56.625Z,100645.27
2018-05-03T09:09:25.008Z,100653.31
2018-05-03T09:11:53.385Z,100658.30
2018-05-03T09:14:21.780Z,100662.69
2018-05-03T09:16:50.263Z,100672.13
2018-05-03T09:19:18.607Z,100674.48
2018-05-03T09:21:46.969Z,100670.77
2018-05-03T09:24:15.342Z,100683.23
2018-05-03T09:26:44.179Z,100684.19
2018-05-03T09:29:12.579Z,100685.82
2018-05-03T09:31:40.950Z,100689.54
2018-05-03T09:34:09.323Z,100690.48
2018-05-03T09:36:37.694Z,100680.74
2018-05-03T09:39:06.233Z,100689.48
2018-05-03T09:41:34.541Z,100694.33
2018-05-03T09:44:02.942Z,100692.31
2018-05-03T09:46:31.355Z,100697.16
2018-05-03T09:49:00.203Z,100690.37
2018-05-03T09:51:28.580Z,100704.43
2018-05-03T09:53:56.966Z,100693.52
2018-05-03T09:56:25.362Z,100698.42
2018-05-03T09:58:53.835Z,100699.53
2018-05-03T10:01:22.216Z,100700.25
2018-05-03T10:03:50.584Z,100696.56
2018-05-03T10:06:19.049Z,100698.77
2018-05-03T10:08:47.413Z,100704.82
2018-05-03T10:11:15.778Z,100702.05
2018-05-03T10:13:44.154Z,100702.63
2018-05-03T10:16:12.548Z,100709.35
2018-05-03T10:18:40.967Z,100709.72
2018-05-03T10:21:09.434Z,100715.08
2018-05-03T10:23:37.922Z,100714.24
2018-05-03T10:26:06.311Z,100708.41
2018-05-03T10:28:34.675Z,100706.80
2018-05-03T10:31:03.067Z,100719.83
2018-05-03T10:33:31.433Z,100725.31
2018-05-03T10:35:59.895Z,100718.77
2018-05-03T10:38:28.187Z,100720.38
2018-05-03T10:40:56.596Z,100728.23
2018-05-03T10:43:24.941Z,100727.50
2018-05-03T10:45:53.343Z,100734.17
2018-05-03T10:48:21.711Z,100733.45
2018-05-03T10:50:50.086Z,100734.84
2018-05-03T10:53:18.465Z,100730.06
2018-05-03T10:55:46.838Z,100738.77
2018-05-03T10:58:15.206Z,100740.83
2018-05-03T11:00:43.591Z,100736.86
2018-05-03T11:03:11.954Z,100742.36
2018-05-03T11:05:40.315Z,100740.62
2018-05-03T11:08:08.695Z,100745.32
2018-05-03T11:10:37.058Z,100738.94
2018-05-03T11:13:05.817Z,100741.88
2018-05-03T11:15:34.206Z,100738.45
2018-05-03T11:18:02.650Z,100746.66
2018-05-03T11:20:31.075Z,100746.94
2018-05-03T11:22:59.860Z,100751.90
2018-05-03T11:25:28.221Z,100743.86
2018-05-03T11:27:56.575Z,100751.39
2018-05-03T11:30:24.949Z,100748.73
2018-05-03T11:32:53.358Z,100756.50
2018-05-03T11:35:21.724Z,100760.27
2018-05-03T11:37:50.246Z,100769.94
2018-05-03T11:40:18.993Z,100778.03
2018-05-03T11:42:47.435Z,100773.06
2018-05-03T11:45:15.741Z,100767.61
2018-05-03T11:47:44.115Z,100769.59
2018-05-03T11:50:12.511Z,100769.08
2018-05-03T11:52:40.997Z,100758.42
2018-05-03T11:55:09.370Z,100764.12
2018-05-03T11:57:37.727Z,100771.02
2018-05-03T12:00:06.119Z,100773.58
2018-05-03T12:02:34.486Z,100770.89
2018-05-03T12:05:02.852Z,100779.13
2018-05-03T12:07:31.242Z,100771.09
2018-05-03T12:09:59.641Z,100777.91
2018-05-03T12:12:28.018Z,100773.26
2018-05-03T12:14:56.512Z,100780.16
2018-05-03T12:17:24.899Z,100782.39
2018-05-03T12:19:53.381Z,100782.97
2018-05-03T12:22:21.772Z,100784.04
2018-05-03T12:24:50.120Z,100775.80
2018-05-03T12:27:18.504Z,100779.22
2018-05-03T12:29:46.889Z,100781.44
2018-05-03T12:32:15.275Z,100788.34
2018-05-03T12:34:43.751Z,100777.39
2018-05-03T12:37:12.226Z,100778.95
2018-05-03T12:39:40.598Z,100778.49
2018-05-03T12:42:08.955Z,100775.24
2018-05-03T12:44:37.348Z,100772.89
2018-05-03T12:47:05.715Z,100773.95
2018-05-03T12:49:34.098Z,100776.02
2018-05-03T12:52:02.470Z,100776.97
2018-05-03T12:54:30.990Z,100764.29
2018-05-03T12:56:59.358Z,100776.87
2018-05-03T12:59:27.740Z,100772.31
2018-05-03T13:01:56.104Z,100777.08
2018-05-03T13:04:24.462Z,100770.76
2018-05-03T13:06:52.857Z,100771.17
2018-05-03T13:09:21.247Z,100777.41
2018-05-03T13:11:49.595Z,100780.80
2018-05-03T13:14:18.001Z,100779.12
2018-05-03T13:16:46.370Z,100775.52
2018-05-03T13:19:14.760Z,100782.00
2018-05-03T13:21:43.142Z,100774.83
2018-05-03T13:24:11.494Z,100777.65
2018-05-03T13:26:39.876Z,100774.23
2018-05-03T13:29:08.597Z,100775.34
2018-05-03T13:31:36.999Z,100781.52
2018-05-03T13:34:05.759Z,100779.42
2018-05-03T13:36:34.126Z,100784.45
2018-05-03T13:39:02.506Z,100795.09
2018-05-03T13:41:30.882Z,100781.38
2018-05-03T13:43:59.378Z,100798.36
2018-05-03T13:46:27.728Z,100796.02
2018-05-03T13:48:56.083Z,100798.70
2018-05-03T13:51:24.462Z,100793.31
2018-05-03T13:53:52.838Z,100805.16
2018-05-03T13:56:21.218Z,100797.50
2018-05-03T13:58:49.592Z,100802.59
2018-05-03T14:01:18.160Z,100796.63
2018-05-03T14:03:46.918Z,100802.91
2018-05-03T14:06:15.473Z,100808.08
2018-05-03T14:08:43.845Z,100805.88
2018-05-03T14:11:12.507Z,100805.38
2018-05-03T14:13:41.286Z,100819.67
2018-05-03T14:16:10.051Z,100814.90
2018-05-03T14:18:38.542Z,100823.65
2018-05-03T14:21:06.917Z,100828.33
2018-05-03T14:23:35.270Z,100824.88
2018-05-03T14:26:03.659Z,100814.98
2018-05-03T14:28:32.041Z,100816.48
2018-05-03T14:31:00.421Z,100823.53
2018-05-03T14:33:28.846Z,100825.33
2018-05-03T14:35:57.269Z,100826.34
2018-05-03T14:38:25.630Z,100823.50
2018-05-03T14:40:54.000Z,100815.44
2018-05-03T14:43:22.365Z,100824.47
2018-05-03T14:45:50.759Z,100811.71
2018-05-03T14:48:19.162Z,100812.36
2018-05-03T14:50:47.687Z,100816.59
2018-05-03T14:53:16.034Z,100818.17
2018-05-03T14:55:45.344Z,100825.79
2018-05-03T14:58:13.762Z,100818.61
2018-05-03T15:00:42.203Z,100823.77
2018-05-03T15:03:10.583Z,100826.85
2018-05-03T15:05:39.080Z,100818.50
2018-05-03T15:08:07.831Z,100823.11
2018-05-03T15:10:36.267Z,100830.69
2018-05-03T15:13:04.636Z,100831.17
2018-05-03T15:15:33.408Z,100838.02
2018-05-03T15:18:01.788Z,100830.80
2018-05-03T15:20:30.166Z,100836.80
2018-05-03T15:22:58.529Z,100844.52
2018-05-03T15:25:26.882Z,100861.98
2018-05-03T15:27:55.283Z,100863.16
2018-05-03T15:30:23.641Z,100869.56
2018-05-03T15:32:52.072Z,100869.08
2018-05-03T15:35:20.851Z,100863.40
2018-05-03T15:37:49.228Z,100863.78
2018-05-03T15:40:17.863Z,100865.92
2018-05-03T15:42:46.276Z,100867.26
2018-05-03T15:45:14.751Z,100862.74
2018-05-03T15:47:43.177Z,100870.90
2018-05-03T15:50:12.011Z,100871.74
2018-05-03T15:52:40.358Z,100872.98
2018-05-03T15:55:08.739Z,100873.17
2018-05-03T15:57:37.129Z,100875.31
2018-05-03T16:00:05.500Z,100876.40
2018-05-03T16:02:33.947Z,100876.05
2018-05-03T16:05:02.737Z,100872.22
2018-05-03T16:07:31.522Z,100882.90
2018-05-03T16:09:59.878Z,100885.01
2018-05-03T16:12:28.260Z,100886.20
2018-05-03T16:14:56.618Z,100886.88
2018-05-03T16:17:24.999Z,100889.94
2018-05-03T16:19:53.378Z,100893.50
2018-05-03T16:22:21.742Z,100903.62
2018-05-03T16:24:50.109Z,100899.34
2018-05-03T16:27:18.515Z,100904.80
2018-05-03T16:29:46.886Z,100915.37
2018-05-03T16:32:15.271Z,100917.47
2018-05-03T16:34:43.654Z,100913.64
2018-05-03T16:37:12.032Z,100927.75
2018-05-03T16:39:40.414Z,100922.56
2018-05-03T16:42:08.795Z,100922.67
2018-05-03T16:44:37.174Z,100927.39
2018-05-03T16:47:05.533Z,100937.64
2018-05-03T16:49:33.932Z,100942.66
2018-05-03T16:52:02.298Z,100932.09
2018-05-03T16:54:30.690Z,100938.23
2018-05-03T16:56:59.081Z,100948.98
2018-05-03T16:59:27.571Z,100948.94
2018-05-03T17:01:55.865Z,100957.70
2018-05-03T17:04:24.700Z,100966.27
2018-05-03T17:06:53.295Z,100970.42
2018-05-03T17:09:21.657Z,100977.70
2018-05-03T17:11:50.142Z,100980.05
2018-05-03T17:14:18.574Z,100987.81
2018-05-03T17:16:47.367Z,100989.36
2018-05-03T17:19:16.168Z,100991.27
2018-05-03T17:21:44.549Z,100992.92
2018-05-03T17:24:12.926Z,101004.61
2018-05-03T17:26:41.758Z,101007.00
2018-05-03T17:29:10.207Z,101008.24
2018-05-03T17:31:38.576Z,101018.16
2018-05-03T17:34:07.399Z,101016.72
2018-05-03T17:36:36.242Z,101027.24
2018-05-03T17:39:05.054Z,101030.78
2018-05-03T17:41:33.505Z,101036.66
2018-05-03T17:44:02.354Z,101042.04
2018-05-03T17:46:30.737Z,101047.02
2018-05-03T17:48:59.150Z,101046.48
2018-05-03T17:51:28.012Z,101061.41
2018-05-03T17:53:56.382Z,101061.48
2018-05-03T17:56:24.981Z,101059.58
2018-05-03T17:58:53.346Z,101080.13
2018-05-03T18:01:21.763Z,101076.91
2018-05-03T18:03:50.220Z,101082.28
2018-05-03T18:06:19.080Z,101095.69
2018-05-03T18:08:47.562Z,101091.30
2018-05-03T18:11:16.000Z,101103.90
2018-05-03T18:13:44.756Z,101103.91
2018-05-03T18:16:13.190Z,101119.92
2018-05-03T18:18:41.591Z,101124.55
2018-05-03T18:21:10.074Z,101123.11
2018-05-03T18:23:38.489Z,101127.92
2018-05-03T18:26:07.034Z,101142.94
2018-05-03T18:28:35.550Z,101151.97
2018-05-03T18:31:03.919Z,101154.25
2018-05-03T18:33:32.533Z,101162.20
2018-05-03T18:36:01.427Z,101180.09
2018-05-03T18:38:30.369Z,101170.69
2018-05-03T18:40:59.342Z,101178.14
2018-05-03T18:43:27.744Z,101183.45
2018-05-03T18:45:56.252Z,101190.75
2018-05-03T18:48:24.699Z,101195.61
2018-05-03T18:50:53.810Z,101195.49
2018-05-03T18:53:22.207Z,101210.33
2018-05-03T18:55:50.605Z,101225.58
2018-05-03T18:58:19.542Z,101213.52
2018-05-03T19:00:48.282Z,101209.18
2018-05-03T19:03:17.071Z,101221.23
2018-05-03T19:05:45.842Z,101223.52
2018-05-03T19:08:14.222Z,101226.14
2018-05-03T19:10:42.735Z,101232.89
2018-05-03T19:13:11.642Z,101236.88
2018-05-03T19:15:40.383Z,101241.17
2018-05-03T19:18:08.771Z,101245.56
2018-05-03T19:20:37.232Z,101254.89
2018-05-03T19:23:05.942Z,101248.39
2018-05-03T19:25:34.332Z,101256.75
2018-05-03T19:28:03.336Z,101264.36
2018-05-03T19:30:32.642Z,101262.27
2018-05-03T19:33:02.534Z,101260.31
2018-05-03T19:35:31.994Z,101250.17
2018-05-03T19:38:00.872Z,101254.88
2018-05-03T19:40:29.656Z,101265.44
2018-05-03T19:42:58.120Z,101247.18
2018-05-03T19:45:26.549Z,101257.64
2018-05-03T19:47:55.030Z,101255.41
2018-05-03T19:50:23.448Z,101259.15
2018-05-03T19:52:51.848Z,101267.33
2018-05-03T19:55:20.356Z,101269.15
2018-05-03T19:57:49.191Z,101270.72
2018-05-03T20:00:17.789Z,101277.45
2018-05-03T20:02:46.324Z,101281.44
2018-05-03T20:05:14.686Z,101281.06
2018-05-03T20:07:43.078Z,101283.95
2018-05-03T20:10:11.488Z,101288.42
2018-05-03T20:12:39.946Z,101289.62
2018-05-03T20:15:08.388Z,101287.97
2018-05-03T20:17:36.807Z,101291.55
2018-05-03T20:20:05.311Z,101303.41
2018-05-03T20:22:33.774Z,101310.45
2018-05-03T20:25:02.165Z,101305.63
2018-05-03T20:27:30.557Z,101316.17
2018-05-03T20:29:59.322Z,101309.66
2018-05-03T20:32:27.702Z,101315.73
2018-05-03T20:34:56.079Z,101323.59
2018-05-03T20:37:24.454Z,101329.34
2018-05-03T20:39:52.829Z,101324.36
2018-05-03T20:42:21.201Z,101325.83
2018-05-03T20:44:49.559Z,101322.35
2018-05-03T20:47:17.957Z,101329.74
2018-05-03T20:49:47.304Z,101336.82
2018-05-03T20:52:16.061Z,101334.23
2018-05-03T20:54:44.435Z,101338.19
2018-05-03T20:57:12.804Z,101337.70
2018-05-03T20:59:41.183Z,101342.55
2018-05-03T21:02:09.595Z,101345.64
2018-05-03T21:04:37.967Z,101343.88
2018-05-03T21:07:06.358Z,101339.91
2018-05-03T21:09:35.159Z,101334.58
2018-05-03T21:12:03.938Z,101336.41
2018-05-03T21:14:32.739Z,101345.64
2018-05-03T21:17:01.555Z,101340.36
2018-05-03T21:19:29.922Z,101345.21
2018-05-03T21:21:58.299Z,101351.36
2018-05-03T21:24:26.699Z,101354.43
2018-05-03T21:26:55.100Z,101345.21
2018-05-03T21:29:23.470Z,101348.28
2018-05-03T21:31:51.878Z,101360.14
2018-05-03T21:34:20.254Z,101362.32
2018-05-03T21:36:48.612Z,101364.50
2018-05-03T21:39:16.989Z,101371.50
2018-05-03T21:41:45.367Z,101369.78
2018-05-03T21:44:13.733Z,101372.37
2018-05-03T21:46:42.138Z,101371.39
2018-05-03T21:49:10.524Z,101378.58
2018-05-03T21:51:38.881Z,101379.91
2018-05-03T21:54:07.257Z,101389.53
2018-05-03T21:56:35.628Z,101388.23
2018-05-03T21:59:03.986Z,101402.72
2018-05-03T22:01:32.397Z,101400.09
2018-05-03T22:04:01.034Z,101400.97
2018-05-03T22:06:29.322Z,101410.63
2018-05-03T22:08:57.745Z,101412.84
2018-05-03T22:11:26.102Z,101419.44
2018-05-03T22:13:54.555Z,101431.73
2018-05-03T22:16:22.882Z,101420.73
2018-05-03T22:18:51.258Z,101419.87
2018-05-03T22:21:19.652Z,101418.53
2018-05-03T22:23:48.036Z,101416.75
2018-05-03T22:26:16.390Z,101412.84
2018-05-03T22:28:44.785Z,101418.97
2018-05-03T22:31:14.178Z,101420.31
2018-05-03T22:33:42.554Z,101416.80
2018-05-03T22:36:11.126Z,101420.28
2018-05-03T22:38:39.511Z,101415.03
2018-05-03T22:41:07.875Z,101415.05
2018-05-03T22:43:36.271Z,101411.08
2018-05-03T22:46:04.646Z,101408.89
2018-05-03T22:48:33.003Z,101412.39
2018-05-03T22:51:01.373Z,101413.72
2018-05-03T22:53:29.796Z,101423.36
2018-05-03T22:55:58.153Z,101420.73
2018-05-03T22:58:26.608Z,101425.07
2018-05-03T23:00:55.096Z,101418.97
2018-05-03T23:03:23.472Z,101416.80
2018-05-03T23:05:51.880Z,101423.37
2018-05-03T23:08:20.258Z,101429.97
2018-05-03T23:10:48.630Z,101423.80
2018-05-03T23:13:17.002Z,101425.58
2018-05-03T23:15:45.387Z,101433.48
2018-05-03T23:18:13.750Z,101429.09
2018-05-03T23:20:42.167Z,101426.45
2018-05-03T23:23:10.738Z,101433.03
2018-05-03T23:25:39.088Z,101432.14
2018-05-03T23:28:07.457Z,101427.28
2018-05-03T23:30:35.882Z,101431.69
2018-05-03T23:33:04.238Z,101435.20
2018-05-03T23:35:32.585Z,101432.59
2018-05-03T23:38:00.981Z,101436.98
2018-05-03T23:40:29.584Z,101434.78
2018-05-03T23:42:57.946Z,101441.34
2018-05-03T23:45:26.316Z,101439.59
2018-05-03T23:47:54.709Z,101441.36
2018-05-03T23:50:23.076Z,101440.89
2018-05-03T23:52:51.510Z,101439.16
2018-05-03T23:55:19.931Z,101432.97
2018-05-03T23:57:48.376Z,101431.23
